Time;durP1;ratioP1;P1;durP2;ratioP2;P2;SDS_P1;SDS_P2;PMS_P1;PMS_P2;Temp;Humidity;BMP_temperature;BMP_pressure;BME280_temperature;BME280_humidity;BME280_pressure;Samples;Min_cycle;Max_cycle;Signal;HPM_P1;HPM_P2
2021/10/20 00:01:50;;;;;;;3.57;3.27;;;19.60;99.90;;;19.55;53.68;100920.06;4995921;27;99767;-48
2021/10/20 00:04:17;;;;;;;3.57;3.27;;;19.60;99.90;;;19.56;53.89;100913.75;4987475;27;97365;-47
2021/10/20 00:06:43;;;;;;;3.50;3.20;;;19.60;99.90;;;19.55;53.62;100912.03;4987926;27;99230;-47
2021/10/20 00:09:09;;;;;;;3.37;3.07;;;19.60;99.90;;;19.56;53.76;100911.09;4983743;27;98559;-45
2021/10/20 00:11:36;;;;;;;4.03;3.23;;;19.60;99.90;;;19.56;53.69;100893.22;4978582;27;99616;-45
2021/10/20 00:14:02;;;;;;;3.63;3.33;;;19.60;99.90;;;19.57;53.89;100902.09;4999086;27;98891;-47
2021/10/20 00:16:29;;;;;;;4.97;3.40;;;19.60;99.90;;;19.56;53.72;100892.34;4991619;27;99298;-48
2021/10/20 00:18:56;;;;;;;4.53;4.13;;;19.60;99.90;;;19.55;53.47;100883.47;4995368;27;98645;-47
2021/10/20 00:21:25;;;;;;;3.17;2.93;;;19.60;99.90;;;19.54;53.37;100886.22;4973394;27;100005;-46
2021/10/20 00:23:52;;;;;;;3.73;3.43;;;19.60;99.90;;;19.53;53.81;100889.88;4997969;27;99479;-48
2021/10/20 00:26:18;;;;;;;3.60;3.30;;;19.50;99.90;;;19.52;53.82;100877.41;5001009;27;98111;-45
2021/10/20 00:28:44;;;;;;;3.70;3.40;;;19.50;99.90;;;19.51;53.60;100870.34;4996660;27;98947;-45
2021/10/20 00:31:10;;;;;;;3.60;3.30;;;19.50;99.90;;;19.51;53.70;100870.34;4982387;27;98930;-47
2021/10/20 00:33:35;;;;;;;3.57;2.93;;;19.50;99.90;;;19.50;53.74;100868.66;5008154;27;97397;-46
2021/10/20 00:36:01;;;;;;;6.17;4.20;;;19.50;99.90;;;19.49;53.92;100866.94;5028300;27;108831;-45
2021/10/20 00:38:27;;;;;;;3.50;3.20;;;19.50;99.90;;;19.49;53.97;100872.28;5008741;27;99784;-47
2021/10/20 00:40:53;;;;;;;4.67;3.43;;;19.50;99.90;;;19.48;53.61;100871.44;5023040;27;105671;-45
2021/10/20 00:43:20;;;;;;;4.37;3.30;;;19.50;99.90;;;19.50;53.93;100863.28;5015221;27;96835;-45
2021/10/20 00:45:46;;;;;;;3.37;3.07;;;19.50;99.90;;;19.50;53.98;100858.81;5027094;27;99117;-45
2021/10/20 00:48:12;;;;;;;3.27;2.90;;;19.50;99.90;;;19.51;53.75;100855.16;5030895;27;96978;-48
2021/10/20 00:50:38;;;;;;;3.73;3.43;;;19.50;99.90;;;19.52;53.70;100856.88;5029822;27;97304;-47
2021/10/20 00:53:04;;;;;;;4.40;4.00;;;19.50;99.90;;;19.53;53.64;100841.72;5013947;27;96848;-47
2021/10/20 00:55:31;;;;;;;5.77;4.20;;;19.50;99.90;;;19.52;53.91;100839.97;5010450;27;96992;-46
2021/10/20 00:57:57;;;;;;;3.37;3.07;;;19.50;99.90;;;19.50;54.04;100844.56;5011274;27;104506;-45
2021/10/20 01:00:23;;;;;;;3.17;2.87;;;19.50;99.90;;;19.47;53.89;100842.13;5014217;27;97370;-45
2021/10/20 01:02:49;;;;;;;3.67;3.37;;;19.40;99.90;;;19.46;53.93;100829.72;5008008;27;107745;-48
2021/10/20 01:05:15;;;;;;;3.67;3.37;;;19.40;99.90;;;19.44;53.80;100831.63;5014688;27;97645;-45
2021/10/20 01:07:41;;;;;;;3.50;3.20;;;19.40;99.90;;;19.44;53.90;100826.28;5011627;27;97697;-45
2021/10/20 01:10:10;;;;;;;3.60;3.30;;;19.40;99.90;;;19.44;54.09;100826.28;5031196;27;97155;-45
2021/10/20 01:12:37;;;;;;;3.03;2.83;;;19.40;99.90;;;19.43;53.97;100827.25;5009946;27;97361;-45
2021/10/20 01:15:20;;;;;;;3.00;2.80;;;19.40;99.90;;;19.48;53.94;100825.09;5014720;27;97635;-46
2021/10/20 01:17:47;;;;;;;3.10;2.80;;;19.40;99.90;;;19.45;53.80;100817.31;5003055;27;99450;-45
2021/10/20 01:20:15;;;;;;;3.43;2.90;;;19.40;99.90;;;19.46;53.74;100819.00;5026950;27;97029;-45
2021/10/20 01:22:41;;;;;;;3.43;3.13;;;19.40;99.90;;;19.44;54.04;100812.91;5009211;27;97234;-46
2021/10/20 01:25:10;;;;;;;3.70;3.40;;;19.40;99.90;;;19.41;53.99;100815.81;5029047;27;99022;-46
2021/10/20 01:27:36;;;;;;;4.57;3.60;;;19.40;99.90;;;19.36;54.19;100823.28;5027463;27;97489;-45
2021/10/20 01:30:04;;;;;;;4.33;3.93;;;19.30;99.90;;;19.32;54.12;100820.81;5028314;27;97980;-45
2021/10/20 01:32:30;;;;;;;4.07;3.20;;;19.20;99.90;;;19.29;54.43;100823.72;5026443;27;97847;-46
2021/10/20 01:34:57;;;;;;;3.50;3.20;;;19.20;99.90;;;19.27;54.23;100806.94;5009734;27;98234;-45
2021/10/20 01:37:25;;;;;;;3.57;3.27;;;19.20;99.90;;;19.27;54.31;100814.09;5026846;27;97299;-45
2021/10/20 01:39:56;;;;;;;3.13;2.80;;;19.20;99.90;;;19.24;54.45;100808.94;5009215;27;97347;-47
2021/10/20 01:42:23;;;;;;;3.40;3.10;;;19.10;99.90;;;19.24;54.13;100799.13;5012074;27;96961;-45
2021/10/20 01:44:49;;;;;;;3.30;3.00;;;19.20;99.90;;;19.25;54.46;100800.84;5008833;27;97309;-45
2021/10/20 01:47:15;;;;;;;3.70;3.40;;;19.20;99.90;;;19.27;54.28;100792.69;5027528;27;98729;-45
2021/10/20 01:49:41;;;;;;;4.03;3.60;;;19.20;99.90;;;19.26;54.28;100793.66;5011878;27;113773;-48
2021/10/20 01:52:07;;;;;;;3.90;3.53;;;19.20;99.90;;;19.26;54.21;100789.16;5011686;27;97917;-46
2021/10/20 01:54:33;;;;;;;4.77;3.73;;;19.20;99.90;;;19.28;54.06;100784.56;5012136;27;97049;-50
2021/10/20 01:56:59;;;;;;;3.80;3.40;;;19.20;99.90;;;19.30;54.03;100765.75;5029299;27;98326;-47
2021/10/20 01:59:24;;;;;;;3.17;2.90;;;19.30;99.90;;;19.32;53.67;100771.81;5015098;27;98944;-46
2021/10/20 02:01:51;;;;;;;4.13;3.77;;;19.30;99.90;;;19.33;53.96;100771.72;5008250;27;101583;-47
2021/10/20 02:04:17;;;;;;;3.60;3.30;;;19.30;99.90;;;19.33;54.25;100774.41;5028004;27;97864;-45
2021/10/20 02:06:43;;;;;;;3.87;3.47;;;19.30;99.90;;;19.33;54.04;100762.84;5001810;27;118255;-47
2021/10/20 02:09:12;;;;;;;3.80;3.30;;;19.30;99.90;;;19.28;54.41;100768.53;5011741;27;97524;-45
2021/10/20 02:11:41;;;;;;;3.63;3.33;;;19.20;99.90;;;19.27;54.09;100761.47;5026331;27;96865;-46
2021/10/20 02:14:09;;;;;;;3.70;3.40;;;19.20;99.90;;;19.25;54.20;100766.06;5012063;27;97665;-48
2021/10/20 02:16:35;;;;;;;3.60;3.10;;;19.20;99.90;;;19.23;54.38;100762.63;5028292;27;97245;-52
2021/10/20 02:19:01;;;;;;;3.27;2.97;;;19.20;99.90;;;19.25;54.42;100752.69;5029718;27;98794;-46
2021/10/20 02:21:27;;;;;;;3.73;3.27;;;19.20;99.90;;;19.25;54.30;100760.72;5031222;27;97139;-46
2021/10/20 02:23:53;;;;;;;3.37;3.07;;;19.20;99.90;;;19.22;54.34;100752.88;5012184;27;97601;-45
2021/10/20 02:26:19;;;;;;;3.70;3.40;;;19.10;99.90;;;19.21;54.66;100753.84;5013032;27;97580;-45
2021/10/20 02:28:45;;;;;;;3.40;3.10;;;19.10;99.90;;;19.18;54.38;100751.41;5010765;27;120559;-46
2021/10/20 02:31:11;;;;;;;3.23;2.93;;;19.10;99.90;;;19.19;54.66;100747.75;5029334;27;97554;-47
2021/10/20 02:33:37;;;;;;;3.43;3.13;;;19.10;99.90;;;19.21;54.39;100739.63;4984146;27;96996;-47
2021/10/20 02:36:03;;;;;;;3.13;2.87;;;19.20;99.90;;;19.21;54.29;100734.28;5013478;27;100360;-46
2021/10/20 02:38:29;;;;;;;3.90;3.60;;;19.10;99.90;;;19.22;54.40;100742.19;5011937;27;97223;-47
2021/10/20 02:40:55;;;;;;;4.63;4.10;;;19.20;99.90;;;19.23;54.24;100738.56;5011084;27;97110;-49
2021/10/20 02:43:21;;;;;;;3.50;3.20;;;19.20;99.90;;;19.25;54.37;100731.31;5014801;27;103261;-47
2021/10/20 02:45:47;;;;;;;3.97;3.57;;;19.20;99.90;;;19.24;54.14;100734.06;4987949;27;112590;-46
2021/10/20 02:48:12;;;;;;;3.40;3.10;;;19.20;99.90;;;19.25;54.35;100727.78;5026853;27;97138;-47
2021/10/20 02:50:38;;;;;;;3.33;3.03;;;19.20;99.90;;;19.25;54.29;100731.31;5009672;27;97016;-46
2021/10/20 02:53:04;;;;;;;3.67;3.37;;;19.20;99.90;;;19.25;54.36;100739.34;5011869;27;97309;-47
2021/10/20 02:55:30;;;;;;;3.33;3.03;;;19.20;99.90;;;19.23;54.11;100725.19;5014345;27;101563;-46
2021/10/20 02:57:56;;;;;;;3.37;3.07;;;19.20;99.90;;;19.20;54.33;100725.41;5007276;27;104201;-45
2021/10/20 03:00:22;;;;;;;4.23;3.80;;;19.10;99.90;;;19.16;54.44;100718.56;5028103;27;102522;-45
2021/10/20 03:02:49;;;;;;;3.50;3.20;;;19.10;99.90;;;19.14;54.46;100715.16;5009289;27;103804;-45
2021/10/20 03:05:15;;;;;;;3.80;3.50;;;19.00;99.90;;;19.17;54.47;100711.41;5007609;27;98765;-47
2021/10/20 03:07:50;;;;;;;4.97;4.27;;;19.10;99.90;;;19.17;54.54;100714.94;5012348;27;99358;-45
2021/10/20 03:10:17;;;;;;;3.43;3.13;;;19.10;99.90;;;19.17;54.26;100704.25;5027404;27;97200;-46
2021/10/20 03:12:44;;;;;;;3.30;3.00;;;19.10;99.90;;;19.18;54.26;100697.94;5013923;27;98676;-45
2021/10/20 03:15:10;;;;;;;3.60;3.30;;;19.10;99.90;;;19.18;54.38;100703.28;5014222;27;97754;-47
2021/10/20 03:17:37;;;;;;;3.70;3.40;;;19.10;99.90;;;19.20;54.57;100696.00;5009660;27;97415;-46
2021/10/20 03:20:08;;;;;;;3.87;3.30;;;19.20;99.90;;;19.19;54.10;100694.28;5007403;27;96858;-47
2021/10/20 03:22:40;;;;;;;3.10;2.80;;;19.20;99.90;;;19.20;54.28;100690.66;4980429;27;97028;-45
2021/10/20 03:25:08;;;;;;;3.53;3.23;;;19.10;99.90;;;19.20;54.15;100685.28;5014460;27;96804;-45
2021/10/20 03:27:43;;;;;;;3.87;3.53;;;19.20;99.90;;;19.20;54.52;100690.66;4999007;27;97446;-47
2021/10/20 03:30:10;;;;;;;3.00;2.70;;;19.10;99.90;;;19.21;54.22;100681.66;5014267;27;97279;-46
2021/10/20 03:32:36;;;;;;;3.43;3.13;;;19.20;99.90;;;19.23;54.24;100679.72;5023421;27;97441;-48
2021/10/20 03:35:03;;;;;;;5.90;4.20;;;19.20;99.90;;;19.19;54.33;100680.91;5014716;27;100132;-47
2021/10/20 03:37:29;;;;;;;3.37;3.07;;;19.10;99.90;;;19.21;54.31;100686.16;5007942;27;100583;-45
2021/10/20 03:39:54;;;;;;;4.43;3.80;;;19.10;99.90;;;19.18;54.05;100684.56;4998535;28;97392;-45
2021/10/20 03:42:20;;;;;;;3.67;3.37;;;19.10;99.90;;;19.18;54.51;100689.91;5027174;27;97612;-45
2021/10/20 03:44:46;;;;;;;3.43;3.13;;;19.10;99.90;;;19.18;54.44;100681.03;5010667;27;112548;-45
2021/10/20 03:47:12;;;;;;;4.13;3.30;;;19.10;99.90;;;19.17;54.55;100685.53;5018301;27;98991;-45
2021/10/20 03:49:38;;;;;;;3.30;3.00;;;19.10;99.90;;;19.14;54.47;100685.75;5008151;27;97097;-45
2021/10/20 03:52:04;;;;;;;4.43;3.47;;;19.00;99.90;;;19.09;54.55;100682.53;5028908;27;97389;-46
2021/10/20 03:54:29;;;;;;;3.60;3.30;;;19.00;99.90;;;19.10;54.47;100688.75;5012259;27;98122;-45
2021/10/20 03:56:55;;;;;;;3.53;3.23;;;19.00;99.90;;;19.09;54.77;100670.97;5009886;27;110843;-46
2021/10/20 03:59:21;;;;;;;3.30;3.00;;;19.00;99.90;;;19.11;54.36;100664.59;5014250;27;107538;-49
2021/10/20 04:01:46;;;;;;;3.57;3.27;;;19.00;99.90;;;19.15;54.38;100666.06;5030559;27;96923;-46
2021/10/20 04:04:12;;;;;;;5.33;3.57;;;19.00;99.90;;;19.17;54.62;100669.47;5010198;27;112557;-45
2021/10/20 04:06:38;;;;;;;3.77;3.47;;;19.10;99.90;;;19.20;54.27;100658.56;5011624;27;99589;-46
2021/10/20 04:09:05;;;;;;;3.83;3.43;;;19.20;99.90;;;19.25;54.16;100661.78;5033844;27;97184;-45
2021/10/20 04:11:31;;;;;;;3.83;3.53;;;19.20;99.90;;;19.26;54.32;100654.63;5011051;27;100089;-45
2021/10/20 04:13:56;;;;;;;3.23;2.73;;;19.20;99.90;;;19.28;54.31;100650.84;4996437;27;101641;-46
2021/10/20 04:16:22;;;;;;;3.30;3.00;;;19.20;99.90;;;19.30;54.25;100643.56;5028056;27;104460;-48
2021/10/20 04:18:48;;;;;;;3.47;3.17;;;19.30;99.90;;;19.33;53.89;100632.66;5011262;27;97634;-45
2021/10/20 04:21:14;;;;;;;3.00;2.80;;;19.30;99.90;;;19.37;53.69;100627.91;5028524;27;97728;-47
2021/10/20 04:23:39;;;;;;;2.93;2.70;;;19.40;99.90;;;19.37;53.82;100632.41;5013696;27;101205;-48
2021/10/20 04:26:05;;;;;;;4.50;3.30;;;19.40;99.90;;;19.37;53.93;100627.06;5010566;27;105514;-45
2021/10/20 04:28:31;;;;;;;3.00;2.80;;;19.40;99.90;;;19.35;54.10;100631.69;5027079;27;98190;-53
2021/10/20 04:30:57;;;;;;;3.47;3.17;;;19.30;99.90;;;19.35;53.81;100618.31;5027789;27;97461;-46
2021/10/20 04:33:23;;;;;;;3.87;3.53;;;19.30;99.90;;;19.35;53.54;100618.31;5009040;27;105124;-47
2021/10/20 04:35:48;;;;;;;3.50;3.20;;;19.40;99.90;;;19.38;53.66;100615.41;5010616;27;106059;-46
2021/10/20 04:38:14;;;;;;;3.40;3.03;;;19.40;99.90;;;19.37;53.77;100605.69;5028718;27;97304;-46
2021/10/20 04:40:40;;;;;;;3.40;3.10;;;19.40;99.90;;;19.39;53.98;100609.13;5009028;27;97568;-45
2021/10/20 04:43:06;;;;;;;3.30;3.00;;;19.40;99.90;;;19.39;53.76;100595.75;5011310;27;112221;-45
2021/10/20 04:45:32;;;;;;;3.90;3.50;;;19.40;99.90;;;19.39;53.93;100593.06;5010573;27;102521;-54
2021/10/20 04:47:58;;;;;;;5.57;4.00;;;19.50;99.90;;;19.39;53.48;100593.94;5012602;27;100474;-44
2021/10/20 04:50:25;;;;;;;3.30;3.00;;;19.50;99.90;;;19.39;53.59;100593.06;5028559;27;97486;-46
2021/10/20 04:52:51;;;;;;;3.30;3.00;;;19.50;99.90;;;19.42;53.87;100592.84;5007172;27;97604;-45
2021/10/20 04:55:17;;;;;;;3.73;3.43;;;19.50;99.90;;;19.42;53.73;100596.38;5014373;27;98566;-46
2021/10/20 04:57:53;;;;;;;3.47;3.07;;;19.50;99.90;;;19.43;53.75;100589.19;5009982;27;96905;-45
2021/10/20 05:00:23;;;;;;;3.40;3.10;;;19.50;99.90;;;19.43;53.55;100582.03;5015599;27;97231;-47
2021/10/20 05:02:48;;;;;;;4.70;3.50;;;19.50;99.90;;;19.40;53.78;100578.72;5027076;27;98090;-46
2021/10/20 05:05:14;;;;;;;4.80;4.27;;;19.50;99.90;;;19.46;53.66;100591.63;5014276;27;106255;-49
2021/10/20 05:07:54;;;;;;;3.93;3.07;;;19.50;99.90;;;19.48;53.60;100587.03;5010756;27;97204;-46
2021/10/20 05:10:22;;;;;;;3.33;2.80;;;19.50;99.90;;;19.44;53.77;100580.19;5011827;27;97091;-47
2021/10/20 05:12:49;;;;;;;3.80;3.37;;;19.60;99.90;;;19.44;53.86;100580.19;5006131;27;98597;-47
2021/10/20 05:15:16;;;;;;;3.70;3.40;;;19.60;99.90;;;19.48;53.78;100565.63;5024269;27;98207;-46
2021/10/20 05:17:43;;;;;;;3.40;3.10;;;19.60;99.90;;;19.51;53.66;100562.72;5009231;27;98739;-46
2021/10/20 05:20:12;;;;;;;3.93;3.63;;;19.60;99.90;;;19.45;53.58;100549.81;5015753;27;97496;-47
2021/10/20 05:22:39;;;;;;;3.10;2.80;;;19.60;99.90;;;19.49;53.49;100548.59;5007776;27;97364;-46
2021/10/20 05:25:08;;;;;;;3.60;3.30;;;19.60;99.90;;;19.52;53.39;100551.03;5034732;27;97503;-46
2021/10/20 05:27:34;;;;;;;4.10;3.60;;;19.60;99.90;;;19.51;53.18;100550.19;5007522;27;97331;-49
2021/10/20 05:30:00;;;;;;;3.20;2.90;;;19.60;99.90;;;19.49;53.54;100540.59;5017910;27;97004;-47
2021/10/20 05:32:28;;;;;;;4.10;3.43;;;19.50;99.90;;;19.48;53.39;100541.56;5028660;27;97488;-46
2021/10/20 05:34:54;;;;;;;3.43;3.13;;;19.50;99.90;;;19.48;53.74;100531.69;5015093;27;97317;-45
2021/10/20 05:37:21;;;;;;;3.60;3.30;;;19.50;99.90;;;19.46;53.44;100527.44;5013194;27;96951;-48
2021/10/20 05:39:48;;;;;;;4.67;3.67;;;19.50;99.90;;;19.48;53.42;100539.72;5010258;27;98975;-46
2021/10/20 05:42:17;;;;;;;3.50;3.20;;;19.50;99.90;;;19.48;53.37;100528.19;5024269;27;99567;-46
2021/10/20 05:44:44;;;;;;;3.70;3.23;;;19.60;99.90;;;19.50;53.48;100526.25;5012657;27;98825;-47
2021/10/20 05:47:10;;;;;;;3.63;3.10;;;19.60;99.90;;;19.52;53.35;100518.94;5015307;27;97702;-47
2021/10/20 05:49:36;;;;;;;3.37;3.07;;;19.60;99.90;;;19.51;53.56;100506.53;5025733;27;97005;-47
2021/10/20 05:52:03;;;;;;;3.93;3.33;;;19.60;99.90;;;19.50;53.62;100502.16;5015557;27;97352;-47
2021/10/20 05:54:29;;;;;;;3.27;2.97;;;19.70;99.90;;;19.47;53.75;100494.38;5016637;27;98087;-46
2021/10/20 05:56:55;;;;;;;3.57;3.27;;;19.60;99.90;;;19.49;53.57;100497.78;5013208;27;97143;-48
2021/10/20 05:59:23;;;;;;;3.60;3.23;;;19.60;99.90;;;19.54;53.70;100495.63;4996801;27;96984;-46
2021/10/20 06:01:50;;;;;;;4.20;3.20;;;19.70;99.90;;;19.58;53.25;100487.28;5007725;27;98653;-45
2021/10/20 06:04:18;;;;;;;3.87;3.50;;;19.70;99.90;;;19.58;53.28;100483.75;5031603;27;97630;-46
2021/10/20 06:06:44;;;;;;;4.20;3.20;;;19.70;99.90;;;19.58;53.21;100483.75;5010809;27;97674;-45
2021/10/20 06:09:11;;;;;;;3.40;3.10;;;19.70;99.90;;;19.57;53.54;100474.03;5012216;27;97266;-45
2021/10/20 06:11:37;;;;;;;3.13;2.83;;;19.70;99.90;;;19.58;53.40;100465.03;5008799;27;102456;-45
2021/10/20 06:14:03;;;;;;;4.20;3.67;;;19.70;99.90;;;19.60;53.13;100471.13;5002136;27;97337;-46
2021/10/20 06:16:32;;;;;;;3.37;3.07;;;19.70;99.90;;;19.60;53.24;100463.94;5015376;27;97069;-46
2021/10/20 06:18:58;;;;;;;4.33;3.57;;;19.70;99.90;;;19.60;52.86;100457.75;5026653;27;97411;-47
2021/10/20 06:21:24;;;;;;;4.20;3.03;;;19.70;99.90;;;19.60;53.25;100447.03;5031632;27;97745;-47
2021/10/20 06:23:51;;;;;;;4.07;3.57;;;19.60;99.90;;;19.61;53.38;100471.00;5026413;27;100488;-45
2021/10/20 06:26:17;;;;;;;4.63;3.67;;;19.60;99.90;;;19.58;53.27;100465.03;5015093;27;97518;-45
2021/10/20 06:28:43;;;;;;;4.50;3.40;;;19.60;99.90;;;19.60;53.09;100457.75;5022568;27;97321;-45
2021/10/20 06:31:09;;;;;;;4.73;3.83;;;19.60;99.90;;;19.54;53.36;100468.88;5007500;27;100948;-47
2021/10/20 06:33:34;;;;;;;4.70;3.63;;;19.50;99.90;;;19.51;53.27;100458.41;5023378;27;96835;-46
2021/10/20 06:36:01;;;;;;;5.43;3.93;;;19.50;99.90;;;19.48;53.44;100443.44;5022495;27;98693;-46
2021/10/20 06:38:27;;;;;;;4.23;3.20;;;19.40;99.90;;;19.47;53.63;100440.88;5021603;27;97090;-45
2021/10/20 06:40:53;;;;;;;3.60;3.30;;;19.50;99.90;;;19.43;53.45;100428.72;4998646;27;97436;-45
2021/10/20 06:43:19;;;;;;;3.90;3.23;;;19.40;99.90;;;19.40;53.73;100434.31;4989723;27;103768;-46
2021/10/20 06:45:45;;;;;;;4.93;3.63;;;19.40;99.90;;;19.42;53.60;100427.00;4983537;27;97997;-45
2021/10/20 06:48:11;;;;;;;4.10;3.70;;;19.40;99.90;;;19.41;53.46;100425.31;4983875;27;97033;-44
2021/10/20 06:50:36;;;;;;;4.00;3.60;;;19.40;99.90;;;19.36;53.57;100425.63;4968439;27;104015;-46
2021/10/20 06:53:02;;;;;;;5.33;4.20;;;19.30;99.90;;;19.34;53.79;100435.59;4990769;27;98629;-48
2021/10/20 06:55:28;;;;;;;5.37;4.40;;;19.30;99.90;;;19.27;54.10;100443.25;4991491;27;99823;-45
2021/10/20 06:57:54;;;;;;;8.60;4.97;;;19.20;99.90;;;19.19;54.73;100450.97;5008109;27;97559;-46
2021/10/20 07:00:20;;;;;;;6.67;5.00;;;19.10;99.90;;;19.08;54.80;100452.75;4985111;27;99435;-45
2021/10/20 07:02:46;;;;;;;4.27;3.40;;;18.90;99.90;;;19.08;54.73;100429.53;4999001;27;112375;-46
2021/10/20 07:05:12;;;;;;;5.53;4.67;;;18.90;99.90;;;18.98;54.96;100421.38;4992779;27;100746;-46
2021/10/20 07:07:38;;;;;;;5.60;4.40;;;18.80;99.90;;;18.90;55.35;100458.47;4985248;27;101745;-45
2021/10/20 07:10:06;;;;;;;5.30;4.43;;;18.80;99.90;;;18.91;55.08;100437.94;4990466;27;98970;-46
2021/10/20 07:12:34;;;;;;;8.00;5.13;;;18.80;99.90;;;18.91;55.06;100443.31;4987305;27;99402;-53
2021/10/20 07:14:59;;;;;;;10.50;5.33;;;18.80;99.90;;;18.88;55.82;100448.88;5003086;27;101318;-45
2021/10/20 07:17:26;;;;;;;4.13;3.43;;;18.80;99.90;;;18.87;55.40;100448.03;4991139;27;100328;-45
2021/10/20 07:19:52;;;;;;;7.83;3.47;;;18.70;99.90;;;18.83;55.23;100437.69;4983407;27;113336;-45
2021/10/20 07:22:18;;;;;;;6.83;4.87;;;18.70;99.90;;;18.78;55.23;100434.47;4984726;27;98131;-46
2021/10/20 07:24:44;;;;;;;7.00;5.23;;;18.70;99.90;;;18.83;55.55;100445.69;5001289;27;100003;-46
2021/10/20 07:27:09;;;;;;;9.70;5.53;;;18.70;99.90;;;18.83;55.81;100475.09;4988186;27;97814;-46
2021/10/20 07:29:35;;;;;;;8.43;5.00;;;18.70;99.90;;;18.81;55.70;100474.34;4997757;27;100201;-47
2021/10/20 07:32:03;;;;;;;6.57;4.33;;;18.70;99.90;;;18.63;56.19;100466.69;5005009;27;100088;-46
2021/10/20 07:34:28;;;;;;;4.97;4.37;;;18.50;99.90;;;18.73;55.52;100462.38;4986800;27;97272;-45
2021/10/20 07:36:55;;;;;;;7.87;4.97;;;18.60;99.90;;;18.75;55.79;100461.44;4982545;27;97610;-45
2021/10/20 07:39:22;;;;;;;5.50;4.90;;;18.70;99.90;;;18.71;56.13;100447.44;4967879;27;97585;-48
2021/10/20 07:41:48;;;;;;;8.83;5.77;;;18.60;99.90;;;18.71;56.16;100437.59;4984414;27;99050;-45
2021/10/20 07:44:15;;;;;;;9.33;4.83;;;18.60;99.90;;;18.76;55.96;100449.78;4974079;27;97458;-49
2021/10/20 07:46:42;;;;;;;6.13;4.80;;;18.70;99.90;;;18.70;56.00;100446.59;4983055;27;97604;-46
2021/10/20 07:49:10;;;;;;;4.67;3.80;;;18.60;99.90;;;18.73;55.71;100446.34;5001500;27;98097;-46
2021/10/20 07:51:36;;;;;;;5.80;4.57;;;18.60;99.90;;;18.79;55.69;100438.84;4995826;27;98266;-47
2021/10/20 07:54:02;;;;;;;5.00;4.50;;;18.70;99.90;;;18.86;55.17;100432.97;4985657;27;97756;-47
2021/10/20 07:56:32;;;;;;;6.00;5.03;;;18.80;99.90;;;18.87;55.54;100421.31;4986619;27;98280;-45
2021/10/20 07:59:02;;;;;;;5.43;4.10;;;18.80;99.90;;;18.87;55.28;100404.41;5000851;27;101874;-47
2021/10/20 08:01:28;;;;;;;4.43;3.67;;;18.80;99.90;;;18.79;55.48;100406.78;5004766;27;98699;-45
2021/10/20 08:03:54;;;;;;;8.17;4.97;;;18.70;99.90;;;18.81;55.73;100397.72;4979165;27;97248;-47
2021/10/20 08:06:20;;;;;;;3.97;3.67;;;18.80;99.90;;;18.90;55.20;100401.50;4983684;27;97104;-47
2021/10/20 08:08:46;;;;;;;6.57;5.17;;;18.80;99.90;;;18.93;55.20;100398.59;4987673;27;98545;-47
2021/10/20 08:11:12;;;;;;;4.00;3.60;;;18.90;99.90;;;18.97;55.14;100400.09;4999919;27;116876;-46
2021/10/20 08:13:37;;;;;;;4.70;4.30;;;18.90;99.90;;;18.97;55.14;100400.09;4998620;27;97999;-45
2021/10/20 08:16:04;;;;;;;5.00;4.60;;;18.90;99.90;;;18.94;55.25;100389.63;5003551;27;100972;-47
2021/10/20 08:18:29;;;;;;;9.07;5.87;;;18.80;99.90;;;18.90;56.40;100394.34;5001013;27;98063;-46
2021/10/20 08:20:55;;;;;;;8.47;6.03;;;18.80;99.90;;;18.86;56.11;100387.53;4982837;27;109907;-45
2021/10/20 08:23:21;;;;;;;7.67;5.13;;;18.80;99.90;;;18.84;55.82;100394.81;5000064;27;97485;-45
2021/10/20 08:25:47;;;;;;;7.03;5.67;;;18.70;99.90;;;18.89;55.15;100365.06;4977459;27;102312;-46
2021/10/20 08:28:13;;;;;;;5.00;4.50;;;18.80;99.90;;;18.92;55.56;100343.44;4989939;27;99441;-46
2021/10/20 08:30:39;;;;;;;4.90;4.40;;;18.80;99.90;;;18.94;55.12;100368.25;4999932;27;99276;-47
2021/10/20 08:33:05;;;;;;;7.10;5.77;;;18.80;99.90;;;18.95;56.74;100383.31;4983094;27;98123;-47
2021/10/20 08:35:32;;;;;;;4.80;4.13;;;18.90;99.90;;;18.94;55.50;100346.84;4973427;27;98404;-47
2021/10/20 08:38:03;;;;;;;5.40;3.97;;;18.90;99.90;;;18.95;55.45;100391.31;4986564;27;101793;-45
2021/10/20 08:40:39;;;;;;;5.10;4.50;;;18.80;99.90;;;18.95;55.27;100392.19;5001724;27;99067;-46
2021/10/20 08:43:05;;;;;;;4.13;3.73;;;18.90;99.90;;;18.94;55.36;100394.97;4980860;27;99097;-49
2021/10/20 08:45:31;;;;;;;4.77;3.73;;;18.90;99.90;;;18.93;55.12;100372.72;4984363;27;99353;-48
2021/10/20 08:47:58;;;;;;;4.90;4.40;;;18.80;99.90;;;18.93;55.46;100358.53;4956469;28;103029;-46
2021/10/20 08:50:30;;;;;;;4.30;3.90;;;18.90;99.90;;;18.93;55.29;100345.16;4966378;28;99410;-45
2021/10/20 08:52:57;;;;;;;6.80;4.90;;;18.90;99.90;;;19.00;55.17;100343.75;4958229;28;99710;-46
2021/10/20 08:55:24;;;;;;;4.00;3.53;;;19.00;99.90;;;19.05;54.91;100330.88;4975596;27;99741;-47
2021/10/20 08:57:52;;;;;;;4.60;4.20;;;19.00;99.90;;;19.09;54.53;100316.28;4990549;27;99587;-48
2021/10/20 09:00:20;;;;;;;4.67;4.23;;;19.10;99.90;;;19.14;54.84;100327.50;4968338;27;99038;-47
2021/10/20 09:02:49;;;;;;;4.80;4.30;;;19.20;99.90;;;19.22;54.44;100333.09;4960011;27;99234;-49
2021/10/20 09:05:28;;;;;;;6.40;5.10;;;19.20;99.90;;;19.23;54.63;100332.13;4969265;28;100274;-51
2021/10/20 09:07:55;;;;;;;8.63;5.20;;;19.20;99.90;;;19.17;54.80;100324.59;4973230;27;97294;-49
2021/10/20 09:10:27;;;;;;;6.13;5.27;;;19.20;99.90;;;19.18;54.57;100328.97;4984563;28;99443;-48
2021/10/20 09:12:56;;;;;;;4.80;4.17;;;19.10;99.90;;;19.14;54.75;100340.03;4957858;27;99016;-54
2021/10/20 09:15:25;;;;;;;10.03;6.10;;;19.00;99.90;;;19.09;54.74;100340.34;4979261;27;99305;-49
2021/10/20 09:18:00;;;;;;;8.27;5.60;;;19.00;99.90;;;19.01;55.03;100348.97;4974490;27;97055;-47
2021/10/20 09:20:33;;;;;;;8.27;5.70;;;18.90;99.90;;;18.98;55.21;100337.66;4983176;27;99183;-46
2021/10/20 09:23:17;;;;;;;4.33;3.73;;;18.80;99.90;;;19.01;55.22;100321.38;4958134;28;98359;-50
2021/10/20 09:25:51;;;;;;;4.67;4.20;;;18.90;99.90;;;19.06;55.77;100305.00;4977532;27;97071;-50
2021/10/20 09:28:32;;;;;;;7.13;4.93;;;19.00;99.90;;;19.03;55.16;100298.91;4985937;27;102454;-49
2021/10/20 09:31:03;;;;;;;6.90;5.63;;;19.00;99.90;;;19.03;54.90;100298.91;4976214;27;105000;-47
2021/10/20 09:33:30;;;;;;;4.97;4.47;;;19.00;99.90;;;19.07;54.83;100262.09;4973904;27;98689;-50
2021/10/20 09:36:09;;;;;;;5.13;4.43;;;19.00;99.90;;;19.14;54.41;100249.97;4978727;27;100633;-49
2021/10/20 09:38:41;;;;;;;4.10;3.70;;;19.10;99.90;;;19.20;54.34;100254.00;4998517;27;101594;-47
2021/10/20 09:41:09;;;;;;;5.13;4.63;;;19.20;99.90;;;19.15;54.78;100286.44;5004398;27;98340;-48
2021/10/20 09:44:01;;;;;;;6.13;4.00;;;19.20;99.90;;;19.19;54.53;100298.59;5006207;27;96882;-49
2021/10/20 09:46:35;;;;;;;5.50;4.67;;;19.10;99.90;;;19.17;54.73;100295.19;5012774;27;97497;-48
2021/10/20 09:49:21;;;;;;;4.47;4.07;;;19.20;99.90;;;19.19;54.33;100293.25;5021917;27;101669;-47
2021/10/20 09:51:56;;;;;;;4.13;3.77;;;19.20;99.90;;;19.18;54.50;100286.19;5006681;27;98136;-49
2021/10/20 09:54:29;;;;;;;6.10;4.40;;;19.20;99.90;;;19.19;54.70;100277.19;5000768;27;97283;-49
2021/10/20 09:56:56;;;;;;;4.97;4.20;;;19.20;99.90;;;19.20;54.48;100278.91;5008231;27;97285;-49
2021/10/20 09:59:24;;;;;;;5.13;3.87;;;19.20;99.90;;;19.22;54.33;100276.94;5008835;27;98322;-46
2021/10/20 10:01:50;;;;;;;4.47;4.07;;;19.20;99.90;;;19.24;54.42;100263.47;5006082;27;99289;-46
2021/10/20 10:04:17;;;;;;;4.83;4.33;;;19.20;99.90;;;19.21;54.43;100264.56;5007246;27;97262;-47
2021/10/20 10:06:45;;;;;;;6.20;4.63;;;19.20;99.90;;;19.24;54.91;100259.00;5000982;27;97668;-48
2021/10/20 10:09:12;;;;;;;6.90;5.03;;;19.30;99.90;;;19.23;54.41;100248.41;5011261;27;98668;-49
2021/10/20 10:11:45;;;;;;;7.00;4.90;;;19.20;99.90;;;19.28;54.57;100255.09;5011420;27;98216;-47